Time;durP1;ratioP1;P1;durP2;ratioP2;P2;SDS_P1;SDS_P2;PMS_P1;PMS_P2;Temp;Humidity;BMP_temperature;BMP_pressure;BME280_temperature;BME280_humidity;BME280_pressure;Samples;Min_cycle;Max_cycle;Signal;HPM_P1;HPM_P2
2021/11/27 00:00:49;;;;;;;0.20;0.20;;;;;;;;;;5034108;28;20211;-66
2021/11/27 00:03:16;;;;;;;0.20;0.20;;;;;;;;;;5040666;28;20205;-67
2021/11/27 00:05:43;;;;;;;0.20;0.20;;;;;;;;;;5028282;28;20459;-66
2021/11/27 00:08:10;;;;;;;0.20;0.20;;;;;;;;;;5041757;28;20299;-67
2021/11/27 00:10:37;;;;;;;0.30;0.30;;;;;;;;;;5043498;28;20255;-66
2021/11/27 00:13:04;;;;;;;0.20;0.20;;;;;;;;;;5043399;28;20205;-66
2021/11/27 00:15:32;;;;;;;0.20;0.20;;;;;;;;;;5043623;28;20270;-67
2021/11/27 00:17:59;;;;;;;0.20;0.20;;;;;;;;;;5043393;28;20208;-67
2021/11/27 00:20:28;;;;;;;0.20;0.20;;;;;;;;;;5043278;28;20205;-67
2021/11/27 00:22:55;;;;;;;0.43;0.43;;;;;;;;;;5043510;28;20210;-67
2021/11/27 00:25:21;;;;;;;0.20;0.20;;;;;;;;;;5043106;28;20493;-67
2021/11/27 00:27:48;;;;;;;0.10;0.10;;;;;;;;;;5043450;28;20492;-67
2021/11/27 00:30:17;;;;;;;0.17;0.17;;;;;;;;;;5042746;28;20204;-67
2021/11/27 00:32:45;;;;;;;0.20;0.20;;;;;;;;;;5042695;28;20213;-67
2021/11/27 00:35:11;;;;;;;0.20;0.20;;;;;;;;;;5042794;28;20226;-67
2021/11/27 00:37:38;;;;;;;0.30;0.30;;;;;;;;;;5027660;28;20197;-67
2021/11/27 00:40:06;;;;;;;0.20;0.20;;;;;;;;;;5023141;28;20236;-67
2021/11/27 00:42:34;;;;;;;0.20;0.20;;;;;;;;;;5040144;28;20222;-66
2021/11/27 00:45:01;;;;;;;0.20;0.20;;;;;;;;;;5026986;28;20200;-67
2021/11/27 00:47:27;;;;;;;0.20;0.20;;;;;;;;;;5030629;28;20205;-66
2021/11/27 00:49:55;;;;;;;0.20;0.20;;;;;;;;;;5027516;28;20276;-67
2021/11/27 00:52:22;;;;;;;0.20;0.20;;;;;;;;;;5032476;28;20240;-67
2021/11/27 00:54:48;;;;;;;0.20;0.20;;;;;;;;;;5022591;28;20234;-66
2021/11/27 00:57:15;;;;;;;0.47;0.47;;;;;;;;;;5022872;28;20207;-67
2021/11/27 00:59:41;;;;;;;0.50;0.37;;;;;;;;;;5027007;28;20403;-67
2021/11/27 01:02:08;;;;;;;0.20;0.20;;;;;;;;;;5025103;28;20212;-67
2021/11/27 01:04:35;;;;;;;0.20;0.20;;;;;;;;;;5035764;28;20232;-67
2021/11/27 01:07:04;;;;;;;0.23;0.23;;;;;;;;;;5037287;28;20205;-67
2021/11/27 01:09:30;;;;;;;0.20;0.20;;;;;;;;;;5042587;28;20214;-66
2021/11/27 01:11:57;;;;;;;0.20;0.20;;;;;;;;;;5042679;28;20259;-66
2021/11/27 01:14:25;;;;;;;0.20;0.20;;;;;;;;;;5042500;28;20221;-66
2021/11/27 01:16:53;;;;;;;0.20;0.20;;;;;;;;;;5042789;28;20212;-66
2021/11/27 01:19:20;;;;;;;0.20;0.20;;;;;;;;;;5042469;28;20206;-67
2021/11/27 01:21:49;;;;;;;0.20;0.20;;;;;;;;;;5042713;28;20477;-67
2021/11/27 01:24:17;;;;;;;0.20;0.20;;;;;;;;;;5042287;28;20198;-66
2021/11/27 01:26:44;;;;;;;0.20;0.20;;;;;;;;;;5042316;28;20228;-66
2021/11/27 01:29:11;;;;;;;0.20;0.20;;;;;;;;;;5042301;28;20208;-66
2021/11/27 01:31:38;;;;;;;0.97;0.97;;;;;;;;;;5042589;28;20209;-67
2021/11/27 01:34:06;;;;;;;0.20;0.20;;;;;;;;;;5042047;28;20209;-67
2021/11/27 01:36:33;;;;;;;0.20;0.20;;;;;;;;;;5042586;28;20477;-67
2021/11/27 01:38:59;;;;;;;0.20;0.20;;;;;;;;;;5042451;28;20415;-68
2021/11/27 01:41:27;;;;;;;0.20;0.20;;;;;;;;;;5042223;28;20200;-67
2021/11/27 01:43:53;;;;;;;0.20;0.20;;;;;;;;;;5042376;28;20217;-67
2021/11/27 01:46:20;;;;;;;0.20;0.20;;;;;;;;;;5042566;28;20201;-67
2021/11/27 01:48:47;;;;;;;0.20;0.20;;;;;;;;;;5042271;28;20208;-66
2021/11/27 01:51:15;;;;;;;0.20;0.20;;;;;;;;;;5042194;28;20201;-66
2021/11/27 01:53:42;;;;;;;0.20;0.20;;;;;;;;;;5044147;28;20212;-66
2021/11/27 01:56:11;;;;;;;0.20;0.20;;;;;;;;;;5045955;28;20228;-66
2021/11/27 01:58:39;;;;;;;0.20;0.20;;;;;;;;;;5046185;28;20201;-65
2021/11/27 02:01:08;;;;;;;0.20;0.20;;;;;;;;;;5045759;28;20209;-68
2021/11/27 02:03:34;;;;;;;0.20;0.20;;;;;;;;;;5032904;28;20515;-67
2021/11/27 02:06:01;;;;;;;0.20;0.20;;;;;;;;;;5029220;28;20255;-66
2021/11/27 02:08:28;;;;;;;0.20;0.20;;;;;;;;;;5034019;28;20229;-67
2021/11/27 02:10:55;;;;;;;0.20;0.20;;;;;;;;;;5046023;28;20603;-67
2021/11/27 02:13:21;;;;;;;0.20;0.20;;;;;;;;;;5039446;28;20205;-67
2021/11/27 02:15:49;;;;;;;0.20;0.20;;;;;;;;;;5045838;28;20422;-67
2021/11/27 02:18:16;;;;;;;0.20;0.20;;;;;;;;;;5045533;28;20208;-67
2021/11/27 02:20:53;;;;;;;0.20;0.20;;;;;;;;;;5045886;28;20204;-67
2021/11/27 02:23:20;;;;;;;0.30;0.30;;;;;;;;;;5045684;28;20283;-67
2021/11/27 02:25:46;;;;;;;0.20;0.20;;;;;;;;;;5045398;28;20228;-66
2021/11/27 02:28:13;;;;;;;0.20;0.20;;;;;;;;;;5043706;28;20205;-67
2021/11/27 02:30:40;;;;;;;0.20;0.20;;;;;;;;;;5043920;28;20201;-67
2021/11/27 02:33:07;;;;;;;0.20;0.20;;;;;;;;;;5040375;28;20211;-66
2021/11/27 02:35:34;;;;;;;0.20;0.20;;;;;;;;;;5045197;28;20228;-66
2021/11/27 02:38:02;;;;;;;0.20;0.20;;;;;;;;;;5044728;28;20212;-67
2021/11/27 02:40:28;;;;;;;0.20;0.20;;;;;;;;;;5040548;28;20480;-67
2021/11/27 02:42:55;;;;;;;0.30;0.30;;;;;;;;;;5045202;28;20212;-67
2021/11/27 02:45:21;;;;;;;0.30;0.30;;;;;;;;;;5045046;28;20252;-67
2021/11/27 02:47:48;;;;;;;0.20;0.20;;;;;;;;;;5040492;28;20211;-67
2021/11/27 02:50:14;;;;;;;0.50;0.50;;;;;;;;;;5043134;28;20335;-66
2021/11/27 02:52:41;;;;;;;0.20;0.20;;;;;;;;;;5044844;28;20208;-66
2021/11/27 02:55:10;;;;;;;0.37;0.37;;;;;;;;;;5044816;28;20232;-66
2021/11/27 02:57:36;;;;;;;0.20;0.20;;;;;;;;;;5044928;28;20220;-67
2021/11/27 03:00:05;;;;;;;0.20;0.20;;;;;;;;;;5045100;28;20239;-67
2021/11/27 03:02:31;;;;;;;0.20;0.20;;;;;;;;;;5044510;28;20268;-66
2021/11/27 03:04:58;;;;;;;0.20;0.20;;;;;;;;;;5039111;28;20224;-67
2021/11/27 03:07:24;;;;;;;0.20;0.20;;;;;;;;;;5044465;28;20201;-66
2021/11/27 03:09:51;;;;;;;0.20;0.20;;;;;;;;;;5044964;28;20391;-66
2021/11/27 03:12:19;;;;;;;0.20;0.20;;;;;;;;;;5044415;28;20407;-66
2021/11/27 03:14:45;;;;;;;0.30;0.30;;;;;;;;;;5044518;28;20245;-66
2021/11/27 03:17:12;;;;;;;0.20;0.20;;;;;;;;;;5044478;28;20208;-66
2021/11/27 03:19:40;;;;;;;0.20;0.20;;;;;;;;;;5044377;28;20201;-66
2021/11/27 03:22:08;;;;;;;4.67;4.27;;;;;;;;;;5044797;28;20449;-67
2021/11/27 03:24:35;;;;;;;0.20;0.20;;;;;;;;;;5044234;28;20239;-66
2021/11/27 03:27:02;;;;;;;0.20;0.20;;;;;;;;;;5044290;28;20204;-66
2021/11/27 03:29:30;;;;;;;0.90;0.90;;;;;;;;;;5044393;28;20496;-66
2021/11/27 03:32:00;;;;;;;0.30;0.30;;;;;;;;;;5042246;28;20236;-68
2021/11/27 03:34:26;;;;;;;0.20;0.20;;;;;;;;;;5024372;28;20276;-67
2021/11/27 03:36:53;;;;;;;0.20;0.20;;;;;;;;;;5030071;28;20228;-67
2021/11/27 03:39:19;;;;;;;0.20;0.20;;;;;;;;;;5044266;28;20397;-67
2021/11/27 03:41:46;;;;;;;0.20;0.20;;;;;;;;;;5043867;28;20232;-67
2021/11/27 03:44:12;;;;;;;0.20;0.20;;;;;;;;;;5044187;28;20204;-66
2021/11/27 03:46:40;;;;;;;0.20;0.20;;;;;;;;;;5043809;28;20503;-67
2021/11/27 03:49:07;;;;;;;0.30;0.30;;;;;;;;;;5043989;28;20300;-66
2021/11/27 03:51:34;;;;;;;1.43;1.43;;;;;;;;;;5044006;28;20263;-66
2021/11/27 03:54:03;;;;;;;0.20;0.20;;;;;;;;;;5043591;28;20216;-67
2021/11/27 03:56:30;;;;;;;0.20;0.20;;;;;;;;;;5043955;28;20278;-67
2021/11/27 03:58:57;;;;;;;0.20;0.20;;;;;;;;;;5043676;28;20204;-66
2021/11/27 04:01:24;;;;;;;0.20;0.20;;;;;;;;;;5043454;28;20204;-67
2021/11/27 04:03:53;;;;;;;0.20;0.20;;;;;;;;;;5043604;28;20200;-67
2021/11/27 04:06:20;;;;;;;0.20;0.20;;;;;;;;;;5043117;28;20373;-66
2021/11/27 04:08:46;;;;;;;0.20;0.20;;;;;;;;;;5043271;28;20200;-66
2021/11/27 04:11:13;;;;;;;0.20;0.20;;;;;;;;;;5043417;28;20235;-66
2021/11/27 04:13:40;;;;;;;0.20;0.20;;;;;;;;;;5043677;28;20220;-66
2021/11/27 04:16:06;;;;;;;0.20;0.20;;;;;;;;;;5041843;28;20224;-67
2021/11/27 04:18:33;;;;;;;0.20;0.20;;;;;;;;;;5043382;28;20204;-66
2021/11/27 04:21:00;;;;;;;0.23;0.23;;;;;;;;;;5043284;28;20435;-67
2021/11/27 04:23:27;;;;;;;0.20;0.20;;;;;;;;;;5043145;28;20208;-67
2021/11/27 04:25:53;;;;;;;0.57;0.57;;;;;;;;;;5043499;28;20388;-67
2021/11/27 04:28:20;;;;;;;0.20;0.20;;;;;;;;;;5043126;28;20224;-66
2021/11/27 04:30:47;;;;;;;0.20;0.20;;;;;;;;;;5043011;28;20211;-67
2021/11/27 04:33:14;;;;;;;0.20;0.20;;;;;;;;;;5043064;28;20508;-67
2021/11/27 04:35:41;;;;;;;0.20;0.20;;;;;;;;;;5036784;28;20232;-67
2021/11/27 04:38:08;;;;;;;1.47;1.40;;;;;;;;;;5042637;28;20508;-67
2021/11/27 04:40:35;;;;;;;0.20;0.20;;;;;;;;;;5042742;28;20235;-67
2021/11/27 04:43:02;;;;;;;0.20;0.20;;;;;;;;;;5043271;28;20537;-66
2021/11/27 04:45:29;;;;;;;0.30;0.30;;;;;;;;;;5042814;28;20266;-66
2021/11/27 04:47:56;;;;;;;0.27;0.27;;;;;;;;;;5042760;28;20496;-66
2021/11/27 04:50:24;;;;;;;0.20;0.20;;;;;;;;;;5042753;28;20208;-65
2021/11/27 04:52:51;;;;;;;0.20;0.20;;;;;;;;;;5043252;28;20273;-66
2021/11/27 04:55:19;;;;;;;0.20;0.20;;;;;;;;;;5032564;28;20244;-66
2021/11/27 04:57:45;;;;;;;0.20;0.20;;;;;;;;;;5042741;28;20205;-67
2021/11/27 05:00:13;;;;;;;0.20;0.20;;;;;;;;;;5042355;28;20211;-66
2021/11/27 05:02:40;;;;;;;0.20;0.20;;;;;;;;;;5041924;28;20254;-67
2021/11/27 05:05:07;;;;;;;0.20;0.20;;;;;;;;;;5042250;28;20229;-67
2021/11/27 05:07:33;;;;;;;0.20;0.20;;;;;;;;;;5042975;28;20200;-66
2021/11/27 05:09:59;;;;;;;0.20;0.20;;;;;;;;;;5042853;28;20266;-66
2021/11/27 05:12:27;;;;;;;0.30;0.30;;;;;;;;;;5042855;28;20224;-67
2021/11/27 05:14:54;;;;;;;0.20;0.20;;;;;;;;;;5042561;28;20213;-65
2021/11/27 05:17:20;;;;;;;0.20;0.20;;;;;;;;;;5042437;28;20251;-66
2021/11/27 05:19:47;;;;;;;0.20;0.20;;;;;;;;;;5042816;28;20460;-66
2021/11/27 05:22:13;;;;;;;0.43;0.43;;;;;;;;;;5042194;28;20243;-66
2021/11/27 05:24:44;;;;;;;0.30;0.30;;;;;;;;;;5042089;28;20460;-66
2021/11/27 05:27:10;;;;;;;0.20;0.20;;;;;;;;;;5043908;28;20189;-67
2021/11/27 05:29:38;;;;;;;0.20;0.20;;;;;;;;;;5045406;28;20208;-66
2021/11/27 05:32:05;;;;;;;0.20;0.20;;;;;;;;;;5040759;28;20268;-68
2021/11/27 05:34:35;;;;;;;0.20;0.20;;;;;;;;;;5028629;28;20212;-66
2021/11/27 05:37:02;;;;;;;0.40;0.40;;;;;;;;;;5042270;28;20466;-66
2021/11/27 05:39:29;;;;;;;0.20;0.20;;;;;;;;;;5046234;28;20313;-67
2021/11/27 05:41:55;;;;;;;0.20;0.20;;;;;;;;;;5046172;28;20520;-66
2021/11/27 05:44:22;;;;;;;0.20;0.20;;;;;;;;;;5046088;28;20212;-66
2021/11/27 05:46:49;;;;;;;0.20;0.20;;;;;;;;;;5046196;28;20196;-68
2021/11/27 05:49:16;;;;;;;0.20;0.20;;;;;;;;;;5046430;28;20231;-67
2021/11/27 05:51:42;;;;;;;0.20;0.20;;;;;;;;;;5046174;28;20201;-67
2021/11/27 05:54:09;;;;;;;0.23;0.23;;;;;;;;;;5046084;28;20409;-66
2021/11/27 05:56:38;;;;;;;0.20;0.20;;;;;;;;;;5045951;28;20225;-66
2021/11/27 05:59:05;;;;;;;0.20;0.20;;;;;;;;;;5041932;28;20216;-67
2021/11/27 06:01:31;;;;;;;0.20;0.20;;;;;;;;;;5046195;28;20232;-67
2021/11/27 06:03:59;;;;;;;0.20;0.20;;;;;;;;;;5045973;28;20205;-67
2021/11/27 06:06:25;;;;;;;0.20;0.20;;;;;;;;;;5045864;28;20239;-68
2021/11/27 06:08:52;;;;;;;0.20;0.20;;;;;;;;;;5045724;28;20268;-66
2021/11/27 06:11:18;;;;;;;0.20;0.20;;;;;;;;;;5045592;28;20205;-67
2021/11/27 06:13:45;;;;;;;0.20;0.20;;;;;;;;;;5045888;28;20211;-65
2021/11/27 06:16:11;;;;;;;0.20;0.20;;;;;;;;;;5045522;28;20232;-66
2021/11/27 06:18:37;;;;;;;0.20;0.20;;;;;;;;;;5045389;28;20247;-67
2021/11/27 06:21:06;;;;;;;0.20;0.20;;;;;;;;;;5045516;28;20201;-67
2021/11/27 06:23:32;;;;;;;0.20;0.20;;;;;;;;;;5034147;28;20220;-67
2021/11/27 06:25:59;;;;;;;0.20;0.20;;;;;;;;;;5029160;28;20212;-67
2021/11/27 06:28:25;;;;;;;0.20;0.20;;;;;;;;;;5031494;28;20284;-66
2021/11/27 06:30:52;;;;;;;0.20;0.20;;;;;;;;;;5030793;28;20206;-67
2021/11/27 06:33:18;;;;;;;0.27;0.27;;;;;;;;;;5033260;28;20526;-67
2021/11/27 06:35:45;;;;;;;0.20;0.20;;;;;;;;;;5027072;28;20252;-66
2021/11/27 06:38:12;;;;;;;0.20;0.20;;;;;;;;;;5039482;28;20205;-67
2021/11/27 06:40:39;;;;;;;2.30;2.20;;;;;;;;;;5030971;28;20228;-66
2021/11/27 06:43:05;;;;;;;0.20;0.20;;;;;;;;;;5028735;28;20401;-66
2021/11/27 06:45:33;;;;;;;0.20;0.20;;;;;;;;;;5035874;28;20213;-66
2021/11/27 06:48:00;;;;;;;0.20;0.20;;;;;;;;;;5031022;28;20219;-66
2021/11/27 06:50:26;;;;;;;0.20;0.20;;;;;;;;;;5033235;28;20244;-66
2021/11/27 06:52:53;;;;;;;1.07;1.07;;;;;;;;;;5036007;28;20225;-66
2021/11/27 06:55:22;;;;;;;0.20;0.20;;;;;;;;;;5035560;28;20220;-66
2021/11/27 06:57:48;;;;;;;0.20;0.20;;;;;;;;;;5028329;28;20237;-66
2021/11/27 07:00:15;;;;;;;2.87;2.77;;;;;;;;;;5027135;28;20205;-66
2021/11/27 07:02:41;;;;;;;0.20;0.20;;;;;;;;;;5029012;28;20201;-67
2021/11/27 07:05:08;;;;;;;0.20;0.20;;;;;;;;;;5037153;28;20235;-68
2021/11/27 07:07:34;;;;;;;0.20;0.20;;;;;;;;;;5030775;28;20361;-66
2021/11/27 07:10:01;;;;;;;0.20;0.20;;;;;;;;;;5031552;28;20205;-67
2021/11/27 07:12:29;;;;;;;0.20;0.20;;;;;;;;;;5033634;28;20205;-67
2021/11/27 07:14:55;;;;;;;0.20;0.20;;;;;;;;;;5033384;28;20209;-66
2021/11/27 07:17:22;;;;;;;0.20;0.20;;;;;;;;;;5032399;28;20236;-67
2021/11/27 07:19:48;;;;;;;0.20;0.20;;;;;;;;;;5035131;28;20499;-67
2021/11/27 07:22:15;;;;;;;0.83;0.83;;;;;;;;;;5028191;28;20205;-67
2021/11/27 07:24:41;;;;;;;0.63;0.63;;;;;;;;;;5027501;28;20209;-67
2021/11/27 07:27:08;;;;;;;0.73;0.73;;;;;;;;;;5031540;28;20293;-66
2021/11/27 07:29:38;;;;;;;0.20;0.20;;;;;;;;;;5035859;28;20295;-66
2021/11/27 07:32:08;;;;;;;0.20;0.20;;;;;;;;;;5030770;28;20497;-67
2021/11/27 07:34:35;;;;;;;0.20;0.20;;;;;;;;;;5034458;28;20276;-66
2021/11/27 07:37:01;;;;;;;0.20;0.20;;;;;;;;;;5028017;28;20228;-66
2021/11/27 07:39:28;;;;;;;0.20;0.20;;;;;;;;;;5032835;28;20205;-67
2021/11/27 07:41:54;;;;;;;0.20;0.20;;;;;;;;;;5033265;28;20217;-66
2021/11/27 07:44:21;;;;;;;0.20;0.20;;;;;;;;;;5036198;28;20259;-66
2021/11/27 07:46:53;;;;;;;6.33;5.93;;;;;;;;;;5033329;28;20197;-67
2021/11/27 07:49:19;;;;;;;0.20;0.20;;;;;;;;;;5026875;28;20208;-67
2021/11/27 07:51:46;;;;;;;0.20;0.20;;;;;;;;;;5039762;28;20205;-67
2021/11/27 07:54:12;;;;;;;0.20;0.20;;;;;;;;;;5038330;28;20223;-65
2021/11/27 07:56:39;;;;;;;0.20;0.20;;;;;;;;;;5033038;28;20400;-67
2021/11/27 07:59:05;;;;;;;0.30;0.30;;;;;;;;;;5035622;28;20253;-67
2021/11/27 08:01:32;;;;;;;0.20;0.20;;;;;;;;;;5030629;28;20239;-68
2021/11/27 08:04:00;;;;;;;0.20;0.20;;;;;;;;;;5027986;28;20420;-70
2021/11/27 08:06:27;;;;;;;2.10;1.90;;;;;;;;;;5037383;28;20209;-66
2021/11/27 08:08:54;;;;;;;0.30;0.30;;;;;;;;;;5034211;28;20227;-67
2021/11/27 08:11:21;;;;;;;0.20;0.20;;;;;;;;;;5031568;28;20497;-67
2021/11/27 08:13:48;;;;;;;0.20;0.20;;;;;;;;;;5027247;28;20508;-68
2021/11/27 08:16:14;;;;;;;1.23;1.23;;;;;;;;;;5040060;28;20535;-66
2021/11/27 08:18:41;;;;;;;0.20;0.20;;;;;;;;;;5031376;28;20204;-67
2021/11/27 08:21:09;;;;;;;0.20;0.20;;;;;;;;;;5023945;28;20210;-63
2021/11/27 08:23:35;;;;;;;0.83;0.83;;;;;;;;;;5034760;28;20279;-67
2021/11/27 08:26:02;;;;;;;0.20;0.20;;;;;;;;;;5041308;28;20204;-67
2021/11/27 08:28:29;;;;;;;6.70;2.10;;;;;;;;;;5031687;28;20205;-67
2021/11/27 08:30:55;;;;;;;0.20;0.20;;;;;;;;;;5026245;28;20205;-66
2021/11/27 08:33:22;;;;;;;0.20;0.20;;;;;;;;;;5032030;28;20213;-66
2021/11/27 08:35:48;;;;;;;0.20;0.20;;;;;;;;;;5031583;28;20260;-67
2021/11/27 08:38:16;;;;;;;0.20;0.20;;;;;;;;;;5033039;28;20583;-66
2021/11/27 08:40:43;;;;;;;0.20;0.20;;;;;;;;;;5034464;28;20233;-66
2021/11/27 08:43:10;;;;;;;0.20;0.20;;;;;;;;;;5031374;28;20252;-67
2021/11/27 08:45:39;;;;;;;0.40;0.40;;;;;;;;;;5032629;28;20402;-67
2021/11/27 08:48:05;;;;;;;0.20;0.20;;;;;;;;;;5031455;28;20214;-66
2021/11/27 08:50:32;;;;;;;0.20;0.20;;;;;;;;;;5028557;28;20207;-68
2021/11/27 08:52:58;;;;;;;0.30;0.30;;;;;;;;;;5028082;28;20210;-67
2021/11/27 08:55:27;;;;;;;0.20;0.20;;;;;;;;;;5031533;28;20211;-67
2021/11/27 08:57:53;;;;;;;0.17;0.17;;;;;;;;;;5031053;28;20238;-67
2021/11/27 09:00:20;;;;;;;0.20;0.20;;;;;;;;;;5050964;28;20214;-67
2021/11/27 09:02:46;;;;;;;0.20;0.20;;;;;;;;;;5028150;28;20209;-67
2021/11/27 09:05:13;;;;;;;0.20;0.20;;;;;;;;;;5033964;28;20229;-66
2021/11/27 09:07:40;;;;;;;0.20;0.20;;;;;;;;;;5024206;28;20202;-67
2021/11/27 09:10:07;;;;;;;0.20;0.20;;;;;;;;;;5033579;28;20205;-66
2021/11/27 09:12:35;;;;;;;0.20;0.20;;;;;;;;;;5027462;28;20218;-66
2021/11/27 09:15:02;;;;;;;0.20;0.20;;;;;;;;;;5027212;28;20212;-67
2021/11/27 09:17:28;;;;;;;0.23;0.23;;;;;;;;;;5024269;28;20523;-67
2021/11/27 09:19:55;;;;;;;0.20;0.20;;;;;;;;;;5031212;28;20218;-68
2021/11/27 09:22:22;;;;;;;0.60;0.33;;;;;;;;;;5024272;28;20207;-67
2021/11/27 09:24:49;;;;;;;0.20;0.20;;;;;;;;;;5038864;28;20247;-67
2021/11/27 09:27:15;;;;;;;0.77;0.77;;;;;;;;;;5041667;28;20315;-67
2021/11/27 09:29:44;;;;;;;0.20;0.20;;;;;;;;;;5040119;28;20200;-67
2021/11/27 09:32:11;;;;;;;0.20;0.20;;;;;;;;;;5025687;28;20212;-68
2021/11/27 09:34:38;;;;;;;0.40;0.40;;;;;;;;;;5026109;28;20233;-67
2021/11/27 09:37:04;;;;;;;0.20;0.20;;;;;;;;;;5034801;28;20229;-67
2021/11/27 09:39:32;;;;;;;0.20;0.20;;;;;;;;;;5027499;28;20211;-67
2021/11/27 09:41:59;;;;;;;0.20;0.20;;;;;;;;;;5028196;28;20205;-67
2021/11/27 09:44:31;;;;;;;0.20;0.20;;;;;;;;;;5036284;28;20205;-68
2021/11/27 09:47:02;;;;;;;0.30;0.30;;;;;;;;;;5028170;28;20202;-69
2021/11/27 09:49:28;;;;;;;0.20;0.20;;;;;;;;;;5035599;28;20285;-67
2021/11/27 09:51:55;;;;;;;0.20;0.20;;;;;;;;;;5028676;28;20205;-67
2021/11/27 09:54:22;;;;;;;0.97;0.97;;;;;;;;;;5033869;28;20398;-67
2021/11/27 09:56:50;;;;;;;0.27;0.27;;;;;;;;;;5033591;28;20267;-67
2021/11/27 09:59:16;;;;;;;0.20;0.20;;;;;;;;;;5028486;28;20210;-67
2021/11/27 10:01:45;;;;;;;0.20;0.20;;;;;;;;;;5029681;28;20512;-69
2021/11/27 10:04:14;;;;;;;0.20;0.20;;;;;;;;;;5029990;28;20292;-67
2021/11/27 10:06:41;;;;;;;0.20;0.20;;;;;;;;;;5030533;28;20382;-65
2021/11/27 10:09:09;;;;;;;0.20;0.20;;;;;;;;;;5038240;28;20204;-67
2021/11/27 10:11:35;;;;;;;6.20;3.97;;;;;;;;;;5035038;28;20229;-68
2021/11/27 10:14:02;;;;;;;0.20;0.20;;;;;;;;;;5041541;28;20204;-67
2021/11/27 10:16:31;;;;;;;0.20;0.20;;;;;;;;;;5028554;28;20405;-68
2021/11/27 10:19:04;;;;;;;0.10;0.10;;;;;;;;;;5030549;28;20396;-66
2021/11/27 10:21:32;;;;;;;0.20;0.20;;;;;;;;;;5027968;28;20234;-68
2021/11/27 10:23:59;;;;;;;0.20;0.20;;;;;;;;;;5032958;28;20211;-68
2021/11/27 10:26:33;;;;;;;0.47;0.47;;;;;;;;;;5044384;28;20213;-69
2021/11/27 10:29:13;;;;;;;0.10;0.10;;;;;;;;;;5052861;28;20481;-68
2021/11/27 10:31:39;;;;;;;0.20;0.20;;;;;;;;;;5041827;28;20561;-68
2021/11/27 10:34:06;;;;;;;0.20;0.20;;;;;;;;;;5035229;28;20213;-68
2021/11/27 10:36:34;;;;;;;0.10;0.10;;;;;;;;;;5043313;28;20217;-69
2021/11/27 10:39:05;;;;;;;0.50;0.50;;;;;;;;;;5045161;28;20233;-69
2021/11/27 10:41:35;;;;;;;1.00;1.00;;;;;;;;;;5043721;28;20285;-68
2021/11/27 10:44:02;;;;;;;0.20;0.20;;;;;;;;;;5042186;28;20221;-67
2021/11/27 10:46:30;;;;;;;0.10;0.10;;;;;;;;;;5039839;28;20210;-67
2021/11/27 10:48:56;;;;;;;0.57;0.57;;;;;;;;;;5032763;28;20207;-67
2021/11/27 10:51:23;;;;;;;0.10;0.10;;;;;;;;;;5029439;28;20211;-67
2021/11/27 10:53:54;;;;;;;0.20;0.20;;;;;;;;;;5031269;28;20443;-68
2021/11/27 10:56:21;;;;;;;0.20;0.20;;;;;;;;;;5038871;28;20440;-69
2021/11/27 10:58:59;;;;;;;0.10;0.10;;;;;;;;;;5042748;28;20227;-68
2021/11/27 11:01:25;;;;;;;0.10;0.10;;;;;;;;;;5044500;28;20278;-69
2021/11/27 11:03:51;;;;;;;0.20;0.20;;;;;;;;;;5048085;28;20272;-67
2021/11/27 11:06:19;;;;;;;0.20;0.20;;;;;;;;;;5031484;28;20378;-67
2021/11/27 11:08:47;;;;;;;0.20;0.20;;;;;;;;;;5040363;28;20210;-67
2021/11/27 11:11:28;;;;;;;0.20;0.20;;;;;;;;;;5044734;28;20205;-67
2021/11/27 11:13:56;;;;;;;0.10;0.10;;;;;;;;;;5044433;28;20438;-65
2021/11/27 11:16:23;;;;;;;0.20;0.20;;;;;;;;;;5040679;28;20431;-68
2021/11/27 11:18:52;;;;;;;0.10;0.10;;;;;;;;;;5037342;28;20225;-67
2021/11/27 11:21:19;;;;;;;1.67;1.60;;;;;;;;;;5027515;28;20214;-66
2021/11/27 11:23:45;;;;;;;0.20;0.20;;;;;;;;;;5028502;28;20214;-67
2021/11/27 11:26:12;;;;;;;0.10;0.10;;;;;;;;;;5025450;28;20207;-67
2021/11/27 11:28:41;;;;;;;0.20;0.20;;;;;;;;;;5026863;28;20446;-67
2021/11/27 11:31:09;;;;;;;0.70;0.70;;;;;;;;;;5029668;28;20207;-67
2021/11/27 11:33:38;;;;;;;0.20;0.20;;;;;;;;;;5032282;28;20214;-66
2021/11/27 11:36:05;;;;;;;0.20;0.20;;;;;;;;;;5035035;28;20523;-66
2021/11/27 11:38:32;;;;;;;1.10;0.60;;;;;;;;;;5042647;28;20233;-67
2021/11/27 11:40:58;;;;;;;0.20;0.20;;;;;;;;;;5044149;28;20217;-67
2021/11/27 11:43:25;;;;;;;0.53;0.53;;;;;;;;;;5043570;28;20241;-67
2021/11/27 11:45:53;;;;;;;0.20;0.20;;;;;;;;;;5044096;28;20207;-68
2021/11/27 11:48:21;;;;;;;0.20;0.20;;;;;;;;;;5043866;28;20216;-68
2021/11/27 11:50:49;;;;;;;0.20;0.20;;;;;;;;;;5043349;28;20510;-68
2021/11/27 11:53:22;;;;;;;0.37;0.37;;;;;;;;;;5029307;28;20212;-66
2021/11/27 11:55:53;;;;;;;0.10;0.10;;;;;;;;;;5024426;28;20199;-67
2021/11/27 11:58:27;;;;;;;0.20;0.20;;;;;;;;;;5031429;28;20263;-68
2021/11/27 12:01:00;;;;;;;0.40;0.40;;;;;;;;;;5043192;28;20218;-67
2021/11/27 12:03:27;;;;;;;0.20;0.20;;;;;;;;;;5039666;28;20207;-67
2021/11/27 12:06:04;;;;;;;0.30;0.30;;;;;;;;;;5034603;28;20315;-66
2021/11/27 12:08:49;;;;;;;1.37;1.37;;;;;;;;;;5046760;28;20503;-68
2021/11/27 12:11:30;;;;;;;0.10;0.10;;;;;;;;;;5032629;28;20499;-68
2021/11/27 12:13:56;;;;;;;0.20;0.20;;;;;;;;;;5028485;28;20209;-67
2021/11/27 12:16:24;;;;;;;3.93;3.73;;;;;;;;;;5027535;28;20235;-67
2021/11/27 12:19:06;;;;;;;0.13;0.13;;;;;;;;;;5024221;28;20262;-66
2021/11/27 12:21:32;;;;;;;0.10;0.10;;;;;;;;;;5033256;28;20198;-66
2021/11/27 12:23:59;;;;;;;0.20;0.20;;;;;;;;;;5027601;28;20210;-66
2021/11/27 12:26:26;;;;;;;1.23;1.17;;;;;;;;;;5032083;28;20207;-67
2021/11/27 12:29:12;;;;;;;0.10;0.10;;;;;;;;;;5030002;28;20405;-66
2021/11/27 12:31:42;;;;;;;0.47;0.47;;;;;;;;;;5026260;28;20275;-67
2021/11/27 12:34:09;;;;;;;0.10;0.10;;;;;;;;;;5034513;28;20223;-67
2021/11/27 12:36:43;;;;;;;0.20;0.20;;;;;;;;;;5038092;28;20249;-69
2021/11/27 12:39:11;;;;;;;0.37;0.37;;;;;;;;;;5025062;28;20263;-67
2021/11/27 12:41:39;;;;;;;0.10;0.10;;;;;;;;;;5031274;28;20239;-67
2021/11/27 12:44:13;;;;;;;0.10;0.10;;;;;;;;;;5030896;28;20214;-67
2021/11/27 12:46:41;;;;;;;0.10;0.10;;;;;;;;;;5034995;28;20219;-68
2021/11/27 12:49:08;;;;;;;0.10;0.10;;;;;;;;;;5032820;28;20205;-68
2021/11/27 12:51:34;;;;;;;0.10;0.10;;;;;;;;;;5030493;28;20219;-68
2021/11/27 12:54:19;;;;;;;0.10;0.10;;;;;;;;;;5026532;28;20349;-68
2021/11/27 12:57:10;;;;;;;0.20;0.20;;;;;;;;;;5032776;28;20261;-67
2021/11/27 12:59:44;;;;;;;0.40;0.40;;;;;;;;;;5012721;28;20231;-67
2021/11/27 13:02:13;;;;;;;0.20;0.20;;;;;;;;;;5028547;28;20199;-67
2021/11/27 13:04:39;;;;;;;0.10;0.10;;;;;;;;;;5037713;28;20234;-67
2021/11/27 13:07:06;;;;;;;0.20;0.20;;;;;;;;;;5042340;28;20210;-67
2021/11/27 13:09:32;;;;;;;0.83;0.80;;;;;;;;;;5041682;28;20271;-68
2021/11/27 13:12:00;;;;;;;0.20;0.20;;;;;;;;;;5041675;28;20209;-68
2021/11/27 13:14:28;;;;;;;0.83;0.83;;;;;;;;;;5042239;28;20254;-67
2021/11/27 13:16:55;;;;;;;0.20;0.20;;;;;;;;;;5034453;28;20455;-67
2021/11/27 13:19:26;;;;;;;0.20;0.20;;;;;;;;;;5034703;28;20228;-66
2021/11/27 13:21:53;;;;;;;0.20;0.20;;;;;;;;;;5036669;28;20243;-67
2021/11/27 13:24:20;;;;;;;0.20;0.20;;;;;;;;;;5038607;28;20207;-67
2021/11/27 13:26:46;;;;;;;0.20;0.20;;;;;;;;;;5036531;28;20301;-68
2021/11/27 13:29:12;;;;;;;0.20;0.20;;;;;;;;;;5035328;28;20212;-66
2021/11/27 13:31:40;;;;;;;0.10;0.10;;;;;;;;;;5028293;28;20202;-67
2021/11/27 13:34:08;;;;;;;0.20;0.20;;;;;;;;;;5035153;28;20219;-68
2021/11/27 13:36:38;;;;;;;0.20;0.20;;;;;;;;;;5035677;28;20409;-68
2021/11/27 13:39:18;;;;;;;0.20;0.20;;;;;;;;;;5030558;28;20222;-68
2021/11/27 13:41:47;;;;;;;0.20;0.20;;;;;;;;;;5034114;28;20199;-68
2021/11/27 13:44:13;;;;;;;0.57;0.57;;;;;;;;;;5033770;28;20233;-68
2021/11/27 13:46:50;;;;;;;0.20;0.20;;;;;;;;;;5028801;28;20214;-67
2021/11/27 13:49:26;;;;;;;0.53;0.53;;;;;;;;;;5044927;28;20207;-67
2021/11/27 13:51:54;;;;;;;0.70;0.70;;;;;;;;;;5043690;28;20197;-67
2021/11/27 13:54:21;;;;;;;0.20;0.20;;;;;;;;;;5028356;28;20222;-68
2021/11/27 13:56:47;;;;;;;0.20;0.20;;;;;;;;;;5043698;28;20267;-67
2021/11/27 13:59:23;;;;;;;0.20;0.20;;;;;;;;;;5045563;28;20226;-67
2021/11/27 14:01:57;;;;;;;0.20;0.20;;;;;;;;;;5046150;28;20199;-67
2021/11/27 14:04:25;;;;;;;0.10;0.10;;;;;;;;;;5041301;28;20296;-67
2021/11/27 14:06:57;;;;;;;0.20;0.20;;;;;;;;;;5041501;28;20290;-68
2021/11/27 14:09:23;;;;;;;0.20;0.20;;;;;;;;;;5036374;28;20198;-68
2021/11/27 14:11:49;;;;;;;0.20;0.20;;;;;;;;;;5038226;28;20394;-68
2021/11/27 14:14:16;;;;;;;0.37;0.37;;;;;;;;;;5037781;28;20215;-68
2021/11/27 14:16:43;;;;;;;0.20;0.20;;;;;;;;;;5038874;28;20206;-67
2021/11/27 14:19:10;;;;;;;0.20;0.20;;;;;;;;;;5040031;28;20235;-68
2021/11/27 14:21:38;;;;;;;0.63;0.63;;;;;;;;;;5039567;28;20252;-67
2021/11/27 14:24:09;;;;;;;0.20;0.20;;;;;;;;;;5033186;28;20218;-67
2021/11/27 14:26:40;;;;;;;0.53;0.53;;;;;;;;;;5045587;28;20204;-67
2021/11/27 14:29:15;;;;;;;0.20;0.20;;;;;;;;;;5039045;28;20255;-67
2021/11/27 14:31:41;;;;;;;0.20;0.20;;;;;;;;;;5034378;28;20205;-67
2021/11/27 14:34:08;;;;;;;0.50;0.50;;;;;;;;;;5041790;28;20214;-68
2021/11/27 14:36:36;;;;;;;0.20;0.20;;;;;;;;;;5044520;28;20217;-69
2021/11/27 14:39:04;;;;;;;0.60;0.60;;;;;;;;;;5035054;28;20595;-68
2021/11/27 14:41:33;;;;;;;0.20;0.20;;;;;;;;;;5042428;28;20206;-68
2021/11/27 14:44:04;;;;;;;0.20;0.20;;;;;;;;;;5036149;28;20217;-68
2021/11/27 14:46:33;;;;;;;0.40;0.40;;;;;;;;;;5040136;28;20202;-67